NRT weather

Public forecast

Using degrees Celsius for public forecast. Weather courtesy of forecast.io.

Current aviation weather report (METAR) for Narita International Airport

Retrieved 2020/08/10 10:00 UTC (14 minutes ago):

RJAA 101000Z 19003KT 9999 FEW025 BKN/// 29/25 Q1013 NOSIG RMK 1CU025 A2993

Aviation forecast (TAF) for Narita International Airport

Retrieved 2020/08/10 06:00 UTC (4 hours ago):

TAF RJAA 100505Z 1006/1112 16004KT 9999 FEW030 BECMG 1021/1100 23013KT TEMPO 1100/1106 23015G26KT